Time;durP1;ratioP1;P1;durP2;ratioP2;P2;SDS_P1;SDS_P2;PMS_P1;PMS_P2;Temp;Humidity;BMP_temperature;BMP_pressure;BME280_temperature;BME280_humidity;BME280_pressure;Samples;Min_cycle;Max_cycle;Signal;HPM_P1;HPM_P2
2021/05/01 00:02:56;;;;;;;14.57;12.43;;;;;;;9.94;61.41;97330.69;10545818;28;20512;-76
2021/05/01 00:08:17;;;;;;;14.88;12.65;;;;;;;9.96;61.75;97372.63;10545263;28;20054;-76
2021/05/01 00:13:37;;;;;;;14.88;13.13;;;;;;;10.00;61.78;97386.09;10559354;28;20127;-75
2021/05/01 00:18:59;;;;;;;14.95;12.60;;;;;;;9.98;62.19;97369.97;10559130;28;20043;-75
2021/05/01 00:24:19;;;;;;;16.55;13.95;;;;;;;9.96;62.59;97355.16;10573253;28;20051;-75
2021/05/01 00:29:39;;;;;;;15.88;13.18;;;;;;;9.92;62.67;97340.97;10544695;28;20093;-74
2021/05/01 00:35:00;;;;;;;14.80;12.98;;;;;;;9.87;63.10;97319.75;10558484;28;20051;-75
2021/05/01 00:40:20;;;;;;;16.25;13.55;;;;;;;9.81;63.01;97300.56;10544095;28;20503;-75
2021/05/01 00:45:41;;;;;;;16.58;14.65;;;;;;;9.64;64.43;97309.22;10530233;28;20055;-74
2021/05/01 00:51:02;;;;;;;16.40;14.48;;;;;;;9.57;64.97;97299.75;10557893;28;20046;-74
2021/05/01 00:56:22;;;;;;;14.98;12.65;;;;;;;9.64;64.39;97284.88;10571520;28;20043;-76
2021/05/01 01:01:50;;;;;;;17.02;13.45;;;;;;;9.65;64.31;97299.53;10528707;28;20043;-75
2021/05/01 01:07:10;;;;;;;14.70;12.63;;;;;;;9.71;65.76;97308.28;10558791;28;20062;-75
2021/05/01 01:12:32;;;;;;;15.13;13.23;;;;;;;9.72;65.91;97281.88;10571011;28;20475;-74
2021/05/01 01:17:52;;;;;;;14.32;12.80;;;;;;;9.64;64.69;97275.78;10542581;28;20051;-76
2021/05/01 01:23:13;;;;;;;14.68;13.18;;;;;;;9.63;65.09;97280.63;10542635;28;20040;-74
2021/05/01 01:28:33;;;;;;;17.27;14.20;;;;;;;9.68;65.53;97287.94;10542236;28;20040;-75
2021/05/01 01:33:54;;;;;;;18.08;14.70;;;;;;;9.69;65.42;97283.09;10541918;28;20391;-76
2021/05/01 01:39:14;;;;;;;17.50;14.73;;;;;;;9.67;65.65;97308.78;10556006;28;20043;-74
2021/05/01 01:44:34;;;;;;;15.57;13.95;;;;;;;9.65;65.72;97280.03;10541591;28;20463;-75
2021/05/01 01:49:55;;;;;;;17.48;14.18;;;;;;;9.55;65.81;97284.94;10555318;28;20048;-75
2021/05/01 01:55:17;;;;;;;17.40;15.00;;;;;;;9.59;65.90;97296.38;10555019;28;20035;-75
2021/05/01 02:00:39;;;;;;;17.75;15.02;;;;;;;9.60;65.67;97292.97;10555219;28;20066;-75
2021/05/01 02:05:59;;;;;;;16.23;13.95;;;;;;;9.65;66.38;97296.75;10554973;28;20529;-74
2021/05/01 02:11:19;;;;;;;16.02;14.25;;;;;;;9.78;66.39;97318.50;10539974;28;20036;-76
2021/05/01 02:16:40;;;;;;;17.33;14.77;;;;;;;9.86;66.31;97324.59;10540327;28;20040;-74
2021/05/01 02:22:00;;;;;;;15.90;14.20;;;;;;;9.92;66.20;97336.09;10540262;28;20466;-75
2021/05/01 02:27:21;;;;;;;18.42;15.60;;;;;;;9.92;66.04;97347.25;10568027;28;20044;-74
2021/05/01 02:32:42;;;;;;;19.38;16.40;;;;;;;9.86;66.36;97352.47;10553591;28;20048;-74
2021/05/01 02:38:02;;;;;;;18.65;16.45;;;;;;;9.78;66.51;97343.59;10553671;28;20456;-74
2021/05/01 02:43:23;;;;;;;17.25;15.18;;;;;;;9.72;66.48;97360.63;10553463;28;20040;-75
2021/05/01 02:48:43;;;;;;;15.18;13.57;;;;;;;9.70;66.48;97346.56;10539211;28;20108;-76
2021/05/01 02:54:05;;;;;;;13.20;11.77;;;;;;;9.68;66.72;97340.88;10539169;28;20062;-75
2021/05/01 02:59:26;;;;;;;15.45;12.88;;;;;;;9.60;66.85;97339.63;10553453;28;20070;-74
2021/05/01 03:04:46;;;;;;;17.25;13.68;;;;;;;9.58;66.98;97333.94;10552498;28;20040;-76
2021/05/01 03:10:22;;;;;;;16.23;13.93;;;;;;;9.62;67.12;97325.81;10552601;28;20398;-75
2021/05/01 03:15:42;;;;;;;18.95;14.93;;;;;;;9.59;66.85;97313.09;10566700;28;20039;-75
2021/05/01 03:21:03;;;;;;;17.95;15.07;;;;;;;9.56;67.36;97319.88;10538336;28;20387;-74
2021/05/01 03:26:23;;;;;;;18.65;14.90;;;;;;;9.57;67.02;97333.19;10572925;28;20043;-74
2021/05/01 03:31:44;;;;;;;18.98;15.00;;;;;;;9.57;67.22;97326.91;10546894;28;20367;-75
2021/05/01 03:37:05;;;;;;;18.50;15.38;;;;;;;9.53;67.33;97334.97;10546572;28;20522;-74
2021/05/01 03:42:26;;;;;;;17.42;15.02;;;;;;;9.55;67.17;97335.84;10533001;28;20048;-75
2021/05/01 03:47:47;;;;;;;18.98;16.08;;;;;;;9.57;67.26;97327.63;10574372;28;20044;-74
2021/05/01 03:53:07;;;;;;;19.27;16.05;;;;;;;9.59;67.57;97346.53;10545992;28;20457;-74
2021/05/01 03:58:28;;;;;;;21.27;17.33;;;;;;;9.57;67.38;97347.13;10574177;28;20044;-74
2021/05/01 04:03:48;;;;;;;19.02;16.48;;;;;;;9.63;67.29;97353.06;10559453;28;20391;-75
2021/05/01 04:09:09;;;;;;;19.48;16.45;;;;;;;9.68;67.17;97342.94;10545579;28;20052;-74
2021/05/01 04:14:29;;;;;;;19.90;16.10;;;;;;;9.73;67.43;97353.00;10545452;28;20042;-74
2021/05/01 04:19:49;;;;;;;18.60;16.60;;;;;;;9.76;67.47;97360.19;10544801;28;20044;-75
2021/05/01 04:25:11;;;;;;;21.92;17.88;;;;;;;9.81;67.28;97361.16;10545020;28;20039;-75
2021/05/01 04:30:32;;;;;;;21.55;17.40;;;;;;;9.85;67.53;97367.00;10545013;28;20040;-74
2021/05/01 04:35:53;;;;;;;21.13;17.50;;;;;;;9.88;67.42;97374.16;10543821;28;20122;-74
2021/05/01 04:41:13;;;;;;;21.90;18.40;;;;;;;9.91;67.21;97370.91;10557364;28;20077;-74
2021/05/01 04:46:34;;;;;;;21.90;18.02;;;;;;;10.00;67.44;97374.94;10558466;28;20040;-74
2021/05/01 04:51:54;;;;;;;20.60;17.55;;;;;;;10.06;67.27;97371.81;10543848;28;20040;-74
2021/05/01 04:57:15;;;;;;;18.33;16.25;;;;;;;10.16;67.07;97361.31;10557694;28;20043;-75
2021/05/01 05:02:35;;;;;;;18.40;16.40;;;;;;;10.24;66.63;97345.09;10543378;28;20046;-75
2021/05/01 05:07:55;;;;;;;18.42;16.02;;;;;;;10.49;66.64;97336.88;10571300;28;20056;-74
2021/05/01 05:13:25;;;;;;;18.55;15.73;;;;;;;10.95;66.24;97352.19;10543277;28;20050;-76
2021/05/01 05:18:46;;;;;;;17.63;15.65;;;;;;;10.99;65.73;97341.25;10556874;28;20051;-75
2021/05/01 05:24:06;;;;;;;18.35;15.02;;;;;;;11.06;65.52;97329.13;10556941;28;20046;-75
2021/05/01 05:29:27;;;;;;;17.50;14.60;;;;;;;11.18;65.46;97324.22;10556285;28;20112;-74
2021/05/01 05:34:48;;;;;;;17.17;15.10;;;;;;;11.40;65.28;97333.19;10542396;28;20043;-73
2021/05/01 05:40:09;;;;;;;19.63;17.35;;;;;;;11.49;64.98;97333.66;10555548;28;20040;-74
2021/05/01 05:45:31;;;;;;;17.35;14.80;;;;;;;11.51;64.80;97330.97;10569766;28;20043;-73
2021/05/01 05:50:51;;;;;;;18.02;15.45;;;;;;;11.71;64.33;97340.50;10554416;28;20097;-76
2021/05/01 05:56:11;;;;;;;17.65;15.55;;;;;;;12.10;64.02;97365.06;10555456;28;20036;-76
2021/05/01 06:01:32;;;;;;;17.67;14.98;;;;;;;11.97;63.54;97374.88;10554829;28;20039;-73
2021/05/01 06:07:09;;;;;;;17.42;15.18;;;;;;;11.91;63.74;97354.94;10554411;28;20051;-74
2021/05/01 06:12:33;;;;;;;16.42;14.30;;;;;;;13.16;63.26;97363.03;10569246;28;20057;-74
2021/05/01 06:17:57;;;;;;;17.70;14.80;;;;;;;12.99;62.00;97383.88;10554260;28;20486;-76
2021/05/01 06:23:18;;;;;;;18.73;15.35;;;;;;;12.60;61.77;97375.50;10554198;28;20049;-74
2021/05/01 06:28:38;;;;;;;18.48;14.82;;;;;;;12.68;61.56;97375.22;10553955;28;20475;-73
2021/05/01 06:33:59;;;;;;;16.60;14.63;;;;;;;13.11;61.50;97375.34;10553686;28;20097;-74
2021/05/01 06:39:19;;;;;;;16.77;15.05;;;;;;;14.48;61.21;97377.94;10553465;28;20043;-73
2021/05/01 06:44:51;;;;;;;18.33;16.42;;;;;;;15.27;58.52;97368.78;10553182;28;20040;-73
2021/05/01 06:50:12;;;;;;;17.30;15.45;;;;;;;15.43;57.42;97352.56;10539972;28;20036;-73
2021/05/01 06:55:33;;;;;;;15.85;14.10;;;;;;;15.58;56.77;97354.63;10553720;28;20040;-74
2021/05/01 07:00:53;;;;;;;18.55;15.95;;;;;;;16.02;55.60;97358.56;10552719;28;20093;-75
2021/05/01 07:06:17;;;;;;;17.00;15.20;;;;;;;15.98;54.74;97369.66;10567040;28;20113;-75
2021/05/01 07:11:41;;;;;;;16.83;15.07;;;;;;;15.65;54.15;97378.16;10566531;28;20077;-75
2021/05/01 07:17:01;;;;;;;18.67;15.48;;;;;;;15.21;53.03;97388.19;10552541;28;20047;-74
2021/05/01 07:22:23;;;;;;;16.17;14.57;;;;;;;14.44;53.74;97383.31;10566515;28;20092;-73
2021/05/01 07:27:49;;;;;;;16.45;14.70;;;;;;;14.13;53.55;97374.81;10552252;28;20043;-75
2021/05/01 07:33:35;;;;;;;17.45;15.55;;;;;;;13.39;53.99;97399.25;10580418;28;20100;-76
2021/05/01 07:38:59;;;;;;;17.77;15.43;;;;;;;13.51;54.30;97396.38;10565572;28;20051;-74
2021/05/01 07:44:19;;;;;;;18.92;16.45;;;;;;;14.18;53.98;97387.69;10552700;28;20039;-74
2021/05/01 07:49:40;;;;;;;19.25;16.50;;;;;;;14.19;53.35;97391.97;10537922;28;20039;-75
2021/05/01 07:55:01;;;;;;;16.27;14.57;;;;;;;14.37;53.11;97386.47;10566063;28;20470;-75
2021/05/01 08:00:21;;;;;;;16.95;15.25;;;;;;;14.21;52.76;97394.84;10565937;28;20044;-74
2021/05/01 08:05:43;;;;;;;17.90;14.85;;;;;;;14.04;52.91;97379.31;10540027;28;20096;-76
2021/05/01 08:11:03;;;;;;;17.92;16.00;;;;;;;14.66;52.60;97366.06;10569419;28;20055;-75
2021/05/01 08:16:24;;;;;;;18.33;16.35;;;;;;;14.90;52.10;97367.16;10561067;28;20043;-74
2021/05/01 08:21:44;;;;;;;17.40;15.65;;;;;;;14.92;51.46;97372.88;10546735;28;20062;-74
2021/05/01 08:27:05;;;;;;;18.77;16.27;;;;;;;14.54;51.51;97378.19;10560233;28;20040;-74
2021/05/01 08:32:26;;;;;;;16.65;14.75;;;;;;;14.52;51.60;97377.38;10560462;28;20043;-76
2021/05/01 08:37:46;;;;;;;18.85;15.23;;;;;;;14.78;51.17;97372.25;10545642;28;20363;-74
2021/05/01 08:43:07;;;;;;;17.75;15.07;;;;;;;15.05;51.08;97368.50;10574158;28;20036;-73
2021/05/01 08:48:28;;;;;;;17.67;15.38;;;;;;;15.67;50.61;97364.88;10575720;28;20380;-75
2021/05/01 08:53:48;;;;;;;19.10;16.20;;;;;;;16.24;49.80;97370.00;10574312;28;20039;-75
2021/05/01 08:59:15;;;;;;;19.08;16.30;;;;;;;17.29;48.10;97364.06;10547334;28;20044;-74
2021/05/01 09:04:46;;;;;;;17.55;15.00;;;;;;;18.73;45.40;97350.38;10558738;28;20047;-75
2021/05/01 09:10:07;;;;;;;15.30;13.80;;;;;;;22.86;43.29;97342.13;10557578;28;20047;-73
2021/05/01 09:15:29;;;;;;;18.90;15.00;;;;;;;23.04;39.07;97335.97;10585796;28;20050;-73
2021/05/01 09:20:49;;;;;;;17.55;15.82;;;;;;;20.80;37.96;97357.75;10572226;28;20051;-74
2021/05/01 09:26:09;;;;;;;16.92;15.13;;;;;;;19.29;39.63;97364.66;10543247;28;20048;-74
2021/05/01 09:31:46;;;;;;;18.27;15.55;;;;;;;18.62;40.29;97354.94;10542856;28;20048;-73
2021/05/01 09:37:07;;;;;;;17.02;15.32;;;;;;;18.33;40.30;97375.25;10555974;28;20100;-74
2021/05/01 09:42:30;;;;;;;16.17;14.57;;;;;;;17.51;41.10;97383.84;10556816;28;20051;-76
2021/05/01 09:47:52;;;;;;;14.57;13.07;;;;;;;16.74;41.39;97378.97;10542077;28;20050;-75
2021/05/01 09:53:17;;;;;;;16.67;14.93;;;;;;;16.02;42.65;97378.28;10569926;28;20051;-74
2021/05/01 09:58:37;;;;;;;;;;;;;;;15.90;43.69;97374.22;10556186;28;20039;-75
2021/05/01 10:04:18;;;;;;;14.52;13.05;;;;;;;16.76;42.82;97364.94;10568589;28;20301;-75
2021/05/01 10:09:42;;;;;;;14.80;13.25;;;;;;;17.04;42.34;97361.72;10542904;28;20398;-74
2021/05/01 10:15:24;;;;;;;15.52;13.43;;;;;;;17.77;42.06;97360.75;10554002;28;20047;-75
2021/05/01 10:20:50;;;;;;;16.75;14.95;;;;;;;17.93;41.36;97362.00;10555369;28;20046;-74
2021/05/01 10:26:14;;;;;;;18.52;15.23;;;;;;;17.89;41.75;97349.84;10568096;28;20097;-73
2021/05/01 10:31:46;;;;;;;17.52;14.73;;;;;;;19.08;41.30;97335.06;10553480;28;20067;-74
2021/05/01 10:37:07;;;;;;;17.45;15.75;;;;;;;22.02;39.09;97316.72;10539623;28;20040;-76
2021/05/01 10:42:27;;;;;;;15.10;13.23;;;;;;;25.07;34.82;97336.94;10553580;28;20054;-76
2021/05/01 10:48:10;;;;;;;15.25;13.32;;;;;;;24.24;32.96;97332.16;10553154;28;20390;-76
2021/05/01 10:53:31;;;;;;;16.73;13.00;;;;;;;24.36;33.06;97320.13;10553952;28;20482;-74
2021/05/01 10:58:51;;;;;;;14.32;12.82;;;;;;;24.65;30.48;97326.72;10552874;28;20285;-74
2021/05/01 11:04:11;;;;;;;14.48;13.13;;;;;;;24.07;29.34;97318.47;10552499;28;20044;-74
2021/05/01 11:09:48;;;;;;;15.88;14.27;;;;;;;24.10;29.29;97314.22;10538139;28;20051;-75
2021/05/01 11:15:13;;;;;;;17.48;15.57;;;;;;;23.41;29.30;97277.28;10566956;28;20409;-74
2021/05/01 11:20:34;;;;;;;17.67;15.88;;;;;;;23.88;29.32;97289.13;10552451;28;20048;-75
2021/05/01 11:25:59;;;;;;;15.70;14.23;;;;;;;24.08;29.09;97275.00;10566429;28;20039;-74
2021/05/01 11:31:20;;;;;;;16.30;14.60;;;;;;;23.25;29.56;97271.41;10566760;28;20551;-74
2021/05/01 11:36:45;;;;;;;15.65;14.15;;;;;;;21.80;30.86;97260.97;10552051;28;20040;-75
2021/05/01 11:42:06;;;;;;;18.10;16.38;;;;;;;22.10;31.16;97265.72;10537940;28;20050;-74
2021/05/01 11:47:28;;;;;;;16.50;14.88;;;;;;;21.71;31.86;97254.47;10572462;28;20050;-74
2021/05/01 11:53:13;;;;;;;17.60;15.83;;;;;;;21.80;32.00;97263.81;10574133;28;20048;-74
2021/05/01 11:58:36;;;;;;;16.33;14.68;;;;;;;21.62;32.42;97252.19;10588035;28;20043;-74
2021/05/01 12:03:58;;;;;;;17.85;16.05;;;;;;;22.20;31.35;97268.72;10545869;28;20043;-74
2021/05/01 12:09:24;;;;;;;15.88;14.27;;;;;;;21.45;32.54;97258.97;10559015;28;20085;-74
2021/05/01 12:14:44;;;;;;;16.73;14.93;;;;;;;20.07;33.69;97254.06;10546273;28;20039;-74
2021/05/01 12:20:16;;;;;;;18.65;15.38;;;;;;;19.46;35.36;97244.84;10544868;28;20043;-74
2021/05/01 12:25:40;;;;;;;16.48;14.85;;;;;;;20.12;35.26;97242.16;10560377;28;20410;-75
2021/05/01 12:31:02;;;;;;;16.15;14.45;;;;;;;19.01;36.77;97240.88;10545295;28;20039;-73
2021/05/01 12:36:24;;;;;;;15.80;14.30;;;;;;;18.40;37.86;97233.50;10574467;28;20037;-75
2021/05/01 12:41:52;;;;;;;14.93;12.90;;;;;;;18.90;37.30;97238.41;10560229;28;20436;-76
2021/05/01 12:47:12;;;;;;;15.65;13.90;;;;;;;18.48;38.45;97222.44;10572415;28;20065;-75
2021/05/01 12:52:34;;;;;;;16.08;14.40;;;;;;;19.12;38.40;97222.06;10558374;28;20043;-74
2021/05/01 12:57:55;;;;;;;17.17;14.60;;;;;;;19.05;37.51;97224.00;10543326;28;20089;-76
2021/05/01 13:03:16;;;;;;;15.18;13.75;;;;;;;19.00;37.83;97233.75;10544165;28;20039;-76
2021/05/01 13:08:41;;;;;;;15.00;13.50;;;;;;;18.92;37.85;97241.31;10571738;28;20406;-74
2021/05/01 13:14:19;;;;;;;15.45;13.95;;;;;;;19.13;37.83;97229.16;10558508;28;20035;-76
2021/05/01 13:19:45;;;;;;;14.60;13.10;;;;;;;19.14;37.92;97231.31;10558367;28;20051;-74
2021/05/01 13:25:08;;;;;;;14.18;12.45;;;;;;;19.28;37.58;97233.06;10585014;28;20051;-74
2021/05/01 13:30:30;;;;;;;13.55;12.15;;;;;;;19.02;37.61;97218.97;10556015;28;20065;-75
2021/05/01 13:35:51;;;;;;;12.07;10.88;;;;;;;18.82;37.82;97219.16;10570546;28;20099;-74
2021/05/01 13:41:18;;;;;;;12.18;10.85;;;;;;;18.79;37.88;97217.63;10542363;28;20054;-73
2021/05/01 13:46:43;;;;;;;13.05;11.75;;;;;;;18.58;37.74;97208.59;10542471;28;20043;-76
2021/05/01 13:52:06;;;;;;;11.85;10.65;;;;;;;18.66;37.80;97201.75;10570932;28;20081;-74
2021/05/01 13:57:29;;;;;;;16.15;11.35;;;;;;;18.73;37.66;97192.78;10527361;28;20048;-76
2021/05/01 14:02:51;;;;;;;13.02;11.32;;;;;;;18.25;38.20;97197.75;10569239;28;20043;-76
2021/05/01 14:08:12;;;;;;;12.48;11.07;;;;;;;18.15;38.29;97186.16;10568016;28;20509;-74
2021/05/01 14:13:34;;;;;;;12.15;10.90;;;;;;;18.29;38.54;97178.09;10526570;28;20035;-73
2021/05/01 14:18:54;;;;;;;13.38;12.07;;;;;;;18.03;38.31;97175.22;10554141;28;20050;-74
2021/05/01 14:24:14;;;;;;;10.90;9.90;;;;;;;17.91;38.94;97169.94;10539715;28;20043;-76
2021/05/01 14:29:35;;;;;;;15.55;13.98;;;;;;;17.85;39.36;97169.03;10567670;28;20089;-74
2021/05/01 14:34:58;;;;;;;12.90;11.55;;;;;;;17.30;39.68;97162.41;10540007;28;20051;-75
2021/05/01 14:40:19;;;;;;;13.48;12.07;;;;;;;16.79;40.14;97160.75;10554030;28;20043;-76
2021/05/01 14:45:39;;;;;;;14.15;12.07;;;;;;;16.58;40.88;97164.91;10567246;28;20097;-74
2021/05/01 14:51:07;;;;;;;13.52;11.55;;;;;;;16.11;41.85;97159.72;10553043;28;20536;-74
2021/05/01 14:56:27;;;;;;;14.45;12.73;;;;;;;15.73;43.36;97162.56;10553584;28;20036;-76
2021/05/01 15:01:48;;;;;;;13.25;11.85;;;;;;;15.57;43.60;97159.09;10552989;28;20060;-76
2021/05/01 15:07:27;;;;;;;13.57;12.27;;;;;;;15.63;43.46;97156.53;10545226;28;20074;-75
2021/05/01 15:12:55;;;;;;;16.05;12.63;;;;;;;15.70;43.72;97152.56;10539444;28;20040;-76
2021/05/01 15:18:22;;;;;;;15.88;14.27;;;;;;;15.56;44.28;97154.09;10566974;28;20046;-73
2021/05/01 15:24:07;;;;;;;13.85;11.80;;;;;;;15.47;44.48;97161.50;10580042;28;20118;-75
2021/05/01 15:29:40;;;;;;;16.33;14.73;;;;;;;15.59;44.69;97152.81;10498838;28;20094;-75
2021/05/01 15:35:00;;;;;;;19.80;16.88;;;;;;;15.82;45.22;97149.50;10507762;28;20052;-76
2021/05/01 15:40:20;;;;;;;18.38;15.18;;;;;;;15.96;44.32;97140.88;10507968;28;20059;-75
2021/05/01 15:45:42;;;;;;;16.35;14.65;;;;;;;15.92;45.05;97129.44;10493068;28;20040;-76
2021/05/01 15:51:03;;;;;;;17.67;15.55;;;;;;;15.86;45.21;97132.78;10493300;28;20097;-75
2021/05/01 15:56:23;;;;;;;17.05;14.60;;;;;;;15.75;45.73;97139.41;10493495;28;20449;-74
2021/05/01 16:01:44;;;;;;;16.25;14.50;;;;;;;15.76;45.53;97137.31;10539095;28;20043;-75
2021/05/01 16:07:04;;;;;;;16.27;14.55;;;;;;;15.85;45.75;97136.25;10552258;28;20502;-75
2021/05/01 16:12:26;;;;;;;15.50;13.90;;;;;;;15.84;45.63;97131.97;10552379;28;20043;-74
2021/05/01 16:17:47;;;;;;;14.68;13.20;;;;;;;15.94;45.62;97121.81;10552365;28;20051;-75
2021/05/01 16:23:07;;;;;;;16.60;14.70;;;;;;;15.89;45.45;97122.31;10552133;28;20044;-74
2021/05/01 16:28:28;;;;;;;18.67;14.88;;;;;;;15.71;45.98;97117.44;10537347;28;20040;-74
2021/05/01 16:33:49;;;;;;;17.60;15.10;;;;;;;15.54;46.19;97104.13;10570850;28;20040;-75
2021/05/01 16:39:10;;;;;;;16.52;14.52;;;;;;;15.39;46.48;97094.41;10559043;28;20502;-74
2021/05/01 16:44:32;;;;;;;17.98;15.65;;;;;;;15.30;46.62;97092.66;10558657;28;20039;-75
2021/05/01 16:49:54;;;;;;;16.58;14.73;;;;;;;15.12;46.92;97089.13;10572384;28;20486;-74
2021/05/01 16:55:16;;;;;;;17.42;15.63;;;;;;;14.84;47.65;97083.09;10558342;27;20043;-76
2021/05/01 17:00:36;;;;;;;19.27;15.85;;;;;;;14.68;47.75;97085.28;10559405;28;20047;-72
2021/05/01 17:05:57;;;;;;;17.33;15.40;;;;;;;14.57;48.30;97089.72;10572566;28;20047;-74
2021/05/01 17:11:18;;;;;;;17.02;15.23;;;;;;;14.47;48.80;97098.44;10557158;28;20043;-76
2021/05/01 17:16:38;;;;;;;14.75;13.18;;;;;;;14.34;48.45;97096.47;10557202;28;20040;-74
2021/05/01 17:21:59;;;;;;;15.55;13.98;;;;;;;14.24;48.64;97082.72;10556544;28;20047;-74
2021/05/01 17:27:20;;;;;;;14.82;12.98;;;;;;;14.24;48.84;97082.00;10542775;28;20039;-74
2021/05/01 17:32:41;;;;;;;15.48;13.77;;;;;;;14.17;49.41;97081.00;10542688;28;20035;-74
2021/05/01 17:38:02;;;;;;;16.17;14.50;;;;;;;13.99;50.12;97066.94;10542311;28;20160;-75
2021/05/01 17:43:22;;;;;;;13.70;12.32;;;;;;;13.85;50.26;97060.69;10555543;28;20039;-75
2021/05/01 17:48:43;;;;;;;17.00;13.85;;;;;;;13.77;50.64;97071.56;10555321;28;20051;-75
2021/05/01 17:54:08;;;;;;;14.35;12.85;;;;;;;13.70;51.05;97067.78;10557678;28;20040;-75
2021/05/01 17:59:29;;;;;;;14.95;13.10;;;;;;;13.59;51.54;97070.75;10542009;28;20047;-73
2021/05/01 18:04:50;;;;;;;15.68;13.85;;;;;;;13.44;52.25;97072.91;10569601;28;20379;-75
2021/05/01 18:10:12;;;;;;;15.88;13.60;;;;;;;13.28;53.61;97063.75;10555057;28;20490;-74
2021/05/01 18:15:32;;;;;;;15.57;13.70;;;;;;;13.15;53.13;97054.06;10556187;28;20040;-75
2021/05/01 18:20:53;;;;;;;17.25;15.10;;;;;;;12.97;54.53;97056.00;10541898;28;20478;-74
2021/05/01 18:26:17;;;;;;;16.63;14.80;;;;;;;12.75;53.84;97052.16;10555017;28;20040;-74
2021/05/01 18:31:37;;;;;;;17.13;15.10;;;;;;;12.63;54.54;97059.94;10542811;28;20048;-76
2021/05/01 18:37:00;;;;;;;20.77;16.52;;;;;;;12.54;55.02;97065.13;10527851;28;20122;-75
2021/05/01 18:42:20;;;;;;;19.88;16.73;;;;;;;12.49;55.20;97057.91;10570004;28;20100;-76
2021/05/01 18:47:41;;;;;;;21.45;17.50;;;;;;;12.40;55.69;97044.88;10540991;28;20040;-75
2021/05/01 18:53:01;;;;;;;20.80;17.52;;;;;;;12.37;55.65;97042.59;10555176;28;20047;-75
2021/05/01 18:58:22;;;;;;;20.67;16.90;;;;;;;12.29;56.06;97045.72;10540527;28;20040;-74
2021/05/01 19:03:43;;;;;;;21.40;16.52;;;;;;;12.24;55.98;97039.19;10553804;28;20040;-79
2021/05/01 19:09:04;;;;;;;20.02;16.42;;;;;;;12.19;56.28;97026.34;10524638;28;20547;-74
2021/05/01 19:14:27;;;;;;;20.20;16.88;;;;;;;12.12;56.85;97026.66;10566745;28;20050;-74
2021/05/01 19:19:47;;;;;;;22.73;18.80;;;;;;;12.10;56.65;97021.69;10567042;28;20047;-76
2021/05/01 19:25:10;;;;;;;23.20;18.33;;;;;;;12.01;56.77;97022.66;10525377;28;20036;-75
2021/05/01 19:30:31;;;;;;;22.35;17.63;;;;;;;11.94;56.67;97016.00;10553616;28;20039;-76
2021/05/01 19:35:52;;;;;;;23.00;18.52;;;;;;;11.92;57.00;97007.53;10567721;28;20410;-73
2021/05/01 19:41:14;;;;;;;24.70;19.67;;;;;;;11.83;57.69;97013.31;10539615;28;20048;-76
2021/05/01 19:46:35;;;;;;;25.42;19.98;;;;;;;11.81;58.16;97007.63;10552361;28;20428;-75
2021/05/01 19:51:56;;;;;;;23.52;18.63;;;;;;;11.72;57.87;97001.59;10552742;28;20062;-75
2021/05/01 19:57:16;;;;;;;25.02;19.13;;;;;;;11.62;58.14;96998.28;10552235;28;20383;-75
2021/05/01 20:02:38;;;;;;;28.50;21.98;;;;;;;11.58;59.05;96989.72;10552116;28;20039;-75
2021/05/01 20:07:59;;;;;;;27.92;20.00;;;;;;;11.50;59.11;96972.53;10569900;28;20055;-74
2021/05/01 20:13:20;;;;;;;28.20;20.92;;;;;;;11.40;59.96;96969.19;10559798;28;20040;-74
2021/05/01 20:18:40;;;;;;;27.70;20.27;;;;;;;11.37;59.50;96967.63;10559614;28;20394;-76
2021/05/01 20:24:01;;;;;;;29.08;21.63;;;;;;;11.30;60.98;96961.03;10573933;28;20039;-76
2021/05/01 20:29:22;;;;;;;32.13;21.95;;;;;;;11.29;59.91;96958.81;10561020;28;20528;-74
2021/05/01 20:34:42;;;;;;;32.03;22.83;;;;;;;11.21;60.84;96936.06;10532498;28;20036;-74
2021/05/01 20:40:05;;;;;;;31.55;21.77;;;;;;;11.15;61.20;96923.22;10560818;28;20042;-74
2021/05/01 20:45:26;;;;;;;29.10;21.38;;;;;;;11.10;61.46;96907.63;10561556;28;20056;-74
2021/05/01 20:50:46;;;;;;;27.17;20.20;;;;;;;11.11;61.21;96897.16;10574496;28;20039;-75
2021/05/01 20:56:07;;;;;;;26.30;19.80;;;;;;;11.07;61.33;96891.34;10546506;28;20051;-75
2021/05/01 21:01:28;;;;;;;30.60;21.88;;;;;;;11.01;62.73;96883.41;10533092;28;20105;-75
2021/05/01 21:06:49;;;;;;;29.33;21.30;;;;;;;10.96;62.44;96873.34;10573483;28;20109;-74
2021/05/01 21:12:09;;;;;;;28.83;21.13;;;;;;;10.92;62.98;96862.00;10559058;28;20117;-76
2021/05/01 21:17:29;;;;;;;29.05;20.73;;;;;;;10.91;64.55;96863.34;10558394;28;20043;-76
2021/05/01 21:22:50;;;;;;;28.52;20.63;;;;;;;10.87;63.17;96866.63;10558579;28;20039;-74
2021/05/01 21:28:12;;;;;;;31.17;22.05;;;;;;;10.88;64.98;96853.38;10544623;28;20046;-75
2021/05/01 21:33:32;;;;;;;30.05;21.67;;;;;;;10.81;64.28;96840.47;10544663;28;20035;-74
2021/05/01 21:38:53;;;;;;;30.85;21.52;;;;;;;10.78;64.53;96833.31;10572407;28;20043;-75
2021/05/01 21:44:14;;;;;;;27.70;21.50;;;;;;;10.69;64.74;96825.88;10543891;28;20129;-75
2021/05/01 21:49:35;;;;;;;27.20;19.98;;;;;;;10.59;65.02;96815.63;10557953;28;20043;-75
2021/05/01 21:54:57;;;;;;;25.55;19.20;;;;;;;10.58;65.43;96800.22;10571572;28;20110;-74
2021/05/01 22:00:57;;;;;;;25.25;19.33;;;;;;;10.54;66.29;96808.41;10557331;28;20501;-75
2021/05/01 22:06:17;;;;;;;22.33;18.85;;;;;;;10.53;66.75;96814.59;10575697;28;20050;-75
2021/05/01 22:11:38;;;;;;;25.38;18.27;;;;;;;10.54;67.27;96802.81;10542427;28;20117;-74
2021/05/01 22:16:59;;;;;;;24.77;18.60;;;;;;;10.52;67.72;96799.19;10543077;28;20126;-75
2021/05/01 22:22:35;;;;;;;24.77;18.08;;;;;;;10.44;67.20;96771.59;10556947;28;20122;-74
2021/05/01 22:27:55;;;;;;;25.30;17.80;;;;;;;10.43;68.23;96791.75;10560678;28;20140;-75
2021/05/01 22:33:16;;;;;;;24.00;18.17;;;;;;;10.38;69.33;96767.75;10542605;28;20043;-74
2021/05/01 22:38:40;;;;;;;21.70;17.13;;;;;;;10.27;70.20;96767.22;10556324;28;20054;-75
2021/05/01 22:44:01;;;;;;;19.70;15.40;;;;;;;10.19;69.17;96757.66;10556989;28;20505;-75
2021/05/01 22:49:22;;;;;;;19.85;16.20;;;;;;;10.21;69.06;96760.56;10541679;28;20065;-75
2021/05/01 22:54:42;;;;;;;22.73;15.82;;;;;;;10.20;69.46;96761.91;10541342;28;20052;-75
2021/05/01 23:00:25;;;;;;;21.00;14.80;;;;;;;10.20;69.22;96765.41;10541482;28;20047;-75
2021/05/01 23:05:45;;;;;;;17.27;13.82;;;;;;;10.22;70.04;96732.06;10458322;23;20061;-77
2021/05/01 23:11:20;;;;;;;17.55;13.68;;;;;;;10.21;70.09;96755.72;10414435;28;20037;-76
2021/05/01 23:16:40;;;;;;;;;;;;;;;10.18;70.61;96754.16;10458795;28;20041;-77
2021/05/01 23:22:01;;;;;;;14.52;11.82;;;;;;;10.13;70.74;96737.81;10455955;28;19924;-77
2021/05/01 23:27:22;;;;;;;13.30;10.90;;;;;;;10.04;70.96;96709.53;10442015;28;20045;-76
2021/05/01 23:32:43;;;;;;;13.07;11.13;;;;;;;9.98;71.34;96694.53;10441688;28;20041;-76
2021/05/01 23:38:05;;;;;;;10.85;9.57;;;;;;;9.87;71.94;96687.69;10455669;28;20068;-76
2021/05/01 23:43:29;;;;;;;10.38;8.25;;;;;;;9.82;72.12;96688.09;10462499;28;20056;-77
2021/05/01 23:48:51;;;;;;;9.57;7.95;;;;;;;9.82;72.12;96683.25;10450113;28;20395;-76
2021/05/01 23:54:12;;;;;;;8.32;7.15;;;;;;;9.84;72.29;96677.78;10464123;28;20419;-76
2021/05/01 23:59:32;;;;;;;9.27;7.53;;;;;;;9.82;72.57;96660.94;10449863;28;20094;-76
